Time;durP1;ratioP1;P1;durP2;ratioP2;P2;SDS_P1;SDS_P2;PMS_P1;PMS_P2;Temp;Humidity;BMP_temperature;BMP_pressure;BME280_temperature;BME280_humidity;BME280_pressure;Samples;Min_cycle;Max_cycle;Signal;HPM_P1;HPM_P2
2022/05/29 00:00:45;;;;;;;14.52;3.78;;;10.30;99.90;;;;;;5036041;28;20089;-79
2022/05/29 00:03:12;;;;;;;8.55;2.78;;;10.30;99.90;;;;;;5035922;28;20497;-79
2022/05/29 00:05:40;;;;;;;14.05;3.58;;;10.40;99.90;;;;;;5018044;28;20053;-79
2022/05/29 00:08:08;;;;;;;15.48;4.22;;;10.40;99.90;;;;;;5019236;28;20080;-77
2022/05/29 00:10:38;;;;;;;7.60;2.95;;;10.40;99.90;;;;;;5036176;28;20448;-78
2022/05/29 00:13:07;;;;;;;10.68;3.10;;;10.50;99.90;;;;;;5018044;28;20425;-79
2022/05/29 00:15:34;;;;;;;11.45;3.03;;;10.40;99.90;;;;;;5036877;28;20433;-79
2022/05/29 00:18:01;;;;;;;15.25;3.90;;;10.60;99.90;;;;;;5035542;28;20104;-79
2022/05/29 00:20:28;;;;;;;11.20;3.05;;;10.40;99.90;;;;;;5035012;28;20049;-78
2022/05/29 00:22:54;;;;;;;9.85;4.03;;;10.50;99.90;;;;;;5020010;28;20046;-79
2022/05/29 00:25:21;;;;;;;16.15;4.88;;;10.50;99.90;;;;;;5044361;28;20123;-78
2022/05/29 00:27:48;;;;;;;13.15;4.13;;;10.50;99.90;;;;;;5043662;28;20477;-79
2022/05/29 00:30:16;;;;;;;10.27;2.75;;;10.50;99.90;;;;;;5020525;28;20046;-79
2022/05/29 00:32:43;;;;;;;14.02;3.50;;;10.40;99.90;;;;;;5020545;28;20065;-79
2022/05/29 00:35:10;;;;;;;8.05;3.35;;;10.30;99.90;;;;;;5017361;28;20085;-80
2022/05/29 00:37:41;;;;;;;11.63;3.72;;;10.30;99.90;;;;;;5017529;28;20533;-79
2022/05/29 00:40:13;;;;;;;;;;;10.30;99.90;;;;;;5036409;28;20472;-79
2022/05/29 00:42:40;;;;;;;10.73;3.35;;;10.30;99.90;;;;;;5034769;28;19983;-79
2022/05/29 00:45:15;;;;;;;9.15;3.25;;;10.30;99.90;;;;;;5017376;28;20107;-78
2022/05/29 00:47:43;;;;;;;7.18;2.95;;;10.30;99.90;;;;;;5016925;28;20045;-79
2022/05/29 00:50:10;;;;;;;12.27;3.22;;;10.30;99.90;;;;;;5035061;28;20505;-79
2022/05/29 00:52:38;;;;;;;12.98;3.40;;;10.30;99.90;;;;;;5034915;28;20119;-79
2022/05/29 00:55:11;;;;;;;13.00;3.35;;;10.30;99.90;;;;;;5034114;28;20053;-79
2022/05/29 00:57:42;;;;;;;9.70;3.50;;;10.30;99.90;;;;;;5034869;28;20056;-79
2022/05/29 01:00:14;;;;;;;10.80;3.42;;;10.30;99.90;;;;;;5017569;28;20489;-79
2022/05/29 01:02:43;;;;;;;10.85;3.50;;;10.30;99.90;;;;;;5016411;28;20067;-79
2022/05/29 01:05:13;;;;;;;14.00;3.97;;;10.30;99.90;;;;;;5017076;28;20081;-78
2022/05/29 01:07:42;;;;;;;7.70;3.15;;;10.30;99.90;;;;;;5034309;28;20493;-78
2022/05/29 01:10:10;;;;;;;11.52;3.28;;;10.30;99.90;;;;;;5016498;28;20045;-79
2022/05/29 01:12:42;;;;;;;13.48;3.65;;;10.30;99.90;;;;;;5016893;28;20643;-79
2022/05/29 01:15:19;;;;;;;16.08;4.05;;;10.40;99.90;;;;;;5016837;28;20427;-81
2022/05/29 01:17:58;;;;;;;10.73;3.50;;;10.40;99.90;;;;;;5015901;28;20080;-81
2022/05/29 01:20:40;;;;;;;9.40;3.65;;;10.40;99.90;;;;;;5034506;28;20531;-81
2022/05/29 01:23:30;;;;;;;12.55;3.53;;;10.40;99.90;;;;;;5033713;28;20606;-80
2022/05/29 01:26:44;;;;;;;11.00;3.77;;;10.40;99.90;;;;;;5017229;28;20053;-79
2022/05/29 01:29:16;;;;;;;9.55;3.50;;;10.40;99.90;;;;;;5034674;28;20053;-80
2022/05/29 01:31:49;;;;;;;11.60;3.33;;;10.40;99.90;;;;;;5012687;28;20137;-79
2022/05/29 01:34:30;;;;;;;13.63;3.60;;;10.40;99.90;;;;;;5014930;28;20050;-79
2022/05/29 01:37:04;;;;;;;;;;;10.40;99.90;;;;;;5012462;28;20104;-82
2022/05/29 01:39:36;;;;;;;10.60;3.22;;;11.10;99.90;;;;;;5014237;28;19933;-82
2022/05/29 01:42:08;;;;;;;15.43;3.63;;;10.40;99.90;;;;;;5014446;28;20050;-82
2022/05/29 01:44:43;;;;;;;11.30;3.47;;;10.40;99.90;;;;;;5013563;28;20493;-82
2022/05/29 01:47:19;;;;;;;10.93;3.97;;;10.40;99.90;;;;;;5014508;28;20050;-82
2022/05/29 01:49:50;;;;;;;9.35;3.65;;;10.40;99.90;;;;;;5013884;28;20057;-82
2022/05/29 01:52:21;;;;;;;13.02;3.67;;;10.60;99.90;;;;;;5013659;28;20054;-82
2022/05/29 01:54:54;;;;;;;17.73;4.22;;;11.00;99.90;;;;;;5012946;28;20157;-82
2022/05/29 01:57:29;;;;;;;14.05;4.70;;;10.50;99.90;;;;;;5014232;28;20482;-82
2022/05/29 02:00:00;;;;;;;10.40;3.88;;;10.50;99.90;;;;;;5012923;28;20050;-81
2022/05/29 02:02:35;;;;;;;12.60;3.35;;;10.50;99.90;;;;;;5014062;28;20050;-81
2022/05/29 02:05:09;;;;;;;11.18;3.60;;;10.50;99.90;;;;;;5012999;28;20119;-82
2022/05/29 02:07:50;;;;;;;8.68;2.63;;;10.50;99.90;;;;;;5013140;28;20045;-82
2022/05/29 02:10:27;;;;;;;7.10;2.75;;;10.50;99.90;;;;;;5012513;28;20529;-81
2022/05/29 02:13:01;;;;;;;5.68;2.70;;;10.80;99.90;;;;;;5012851;28;20461;-81
2022/05/29 02:15:36;;;;;;;8.15;3.75;;;10.50;99.90;;;;;;5012490;28;20073;-81
2022/05/29 02:18:06;;;;;;;12.38;2.95;;;10.60;99.90;;;;;;5013843;28;20482;-81
2022/05/29 02:20:38;;;;;;;7.00;2.60;;;10.50;99.90;;;;;;5012297;28;20085;-80
2022/05/29 02:23:10;;;;;;;9.15;3.10;;;10.60;99.90;;;;;;5014265;28;20054;-81
2022/05/29 02:25:40;;;;;;;10.35;3.30;;;10.60;99.90;;;;;;5013725;28;20049;-80
2022/05/29 02:28:11;;;;;;;9.47;3.43;;;10.50;99.90;;;;;;5013490;28;20087;-81
2022/05/29 02:30:47;;;;;;;14.25;3.50;;;10.80;99.90;;;;;;5012565;28;20080;-79
2022/05/29 02:33:19;;;;;;;9.93;3.67;;;10.60;99.90;;;;;;5012464;28;20053;-80
2022/05/29 02:35:54;;;;;;;12.07;3.38;;;10.60;99.90;;;;;;5013541;28;20050;-78
2022/05/29 02:38:26;;;;;;;6.15;2.60;;;10.60;99.90;;;;;;5013376;28;20089;-78
2022/05/29 02:40:59;;;;;;;11.80;2.80;;;10.60;99.90;;;;;;5012664;28;20081;-78
2022/05/29 02:43:37;;;;;;;8.48;2.42;;;10.70;99.90;;;;;;5012041;28;20046;-80
2022/05/29 02:46:14;;;;;;;10.45;2.72;;;10.70;99.90;;;;;;5012196;28;20081;-78
2022/05/29 02:48:45;;;;;;;9.98;3.00;;;10.70;99.90;;;;;;5012443;28;20473;-77
2022/05/29 02:51:20;;;;;;;10.55;2.72;;;10.70;99.90;;;;;;5012530;28;20070;-78
2022/05/29 02:53:47;;;;;;;14.35;3.10;;;10.60;99.90;;;;;;5013245;28;20054;-78
2022/05/29 02:56:15;;;;;;;7.50;3.08;;;10.60;99.90;;;;;;5012770;28;20050;-80
2022/05/29 02:58:46;;;;;;;11.90;3.13;;;10.60;99.90;;;;;;5012210;28;20077;-78
2022/05/29 03:01:36;;;;;;;10.20;3.72;;;10.50;99.90;;;;;;5011358;28;20633;-79
2022/05/29 03:04:28;;;;;;;9.57;2.88;;;10.40;99.90;;;;;;5011861;28;20502;-78
2022/05/29 03:07:02;;;;;;;9.18;3.47;;;10.40;99.90;;;;;;5012400;28;20053;-79
2022/05/29 03:09:44;;;;;;;11.45;3.10;;;10.50;99.90;;;;;;5011695;28;20116;-79
2022/05/29 03:12:31;;;;;;;7.57;3.25;;;10.40;99.90;;;;;;5012213;28;20120;-78
2022/05/29 03:15:09;;;;;;;14.38;3.25;;;10.40;99.90;;;;;;5012200;28;20450;-79
2022/05/29 03:17:44;;;;;;;15.77;3.42;;;10.40;99.90;;;;;;5013512;28;20072;-82
2022/05/29 03:20:18;;;;;;;7.03;3.10;;;10.40;99.90;;;;;;5012891;28;20046;-81
2022/05/29 03:22:55;;;;;;;8.82;2.60;;;10.80;99.90;;;;;;5012021;28;20053;-82
2022/05/29 03:25:28;;;;;;;10.20;2.72;;;10.40;99.90;;;;;;5012382;28;20050;-80
2022/05/29 03:27:57;;;;;;;9.82;2.47;;;10.40;99.90;;;;;;5012595;28;20515;-80
2022/05/29 03:30:28;;;;;;;10.27;2.53;;;10.40;99.90;;;;;;5012825;28;20046;-82
2022/05/29 03:32:58;;;;;;;12.23;2.83;;;10.40;99.90;;;;;;5031977;28;20567;-81
2022/05/29 03:35:28;;;;;;;4.55;1.90;;;10.40;99.90;;;;;;5032971;28;20555;-81
2022/05/29 03:37:55;;;;;;;10.48;2.08;;;10.40;99.90;;;;;;5014686;28;20509;-77
2022/05/29 03:40:24;;;;;;;15.73;2.67;;;10.40;99.90;;;;;;5032631;28;20132;-78
2022/05/29 03:42:51;;;;;;;8.57;2.03;;;10.50;99.90;;;;;;5015493;28;20640;-79
2022/05/29 03:45:18;;;;;;;4.80;1.70;;;10.40;99.90;;;;;;5014303;28;20114;-79
2022/05/29 03:47:45;;;;;;;6.45;1.92;;;10.50;99.90;;;;;;5015199;28;20504;-78
2022/05/29 03:50:17;;;;;;;8.65;2.35;;;10.50;99.90;;;;;;5033100;28;20073;-78
2022/05/29 03:52:44;;;;;;;8.95;2.45;;;10.50;99.90;;;;;;5015428;28;20482;-78
2022/05/29 03:55:12;;;;;;;8.88;2.72;;;10.50;99.90;;;;;;5018985;28;20138;-78
2022/05/29 03:57:39;;;;;;;6.22;2.65;;;10.50;99.90;;;;;;5035920;28;20248;-79
2022/05/29 04:00:10;;;;;;;13.55;2.97;;;10.50;99.90;;;;;;5021068;28;20073;-78
2022/05/29 04:02:39;;;;;;;12.23;3.47;;;10.50;99.90;;;;;;5041657;28;20049;-79
2022/05/29 04:05:06;;;;;;;10.60;3.08;;;10.50;99.90;;;;;;5027567;28;20060;-79
2022/05/29 04:13:04;;;;;;;8.77;2.40;;;10.50;99.90;;;;;;5021986;28;20489;-78
2022/05/29 04:15:32;;;;;;;7.88;2.53;;;10.50;99.90;;;;;;5022594;28;20481;-78
2022/05/29 04:17:58;;;;;;;12.85;3.10;;;10.50;99.90;;;;;;5043823;28;20053;-79
2022/05/29 04:20:25;;;;;;;9.80;2.50;;;10.50;99.90;;;;;;5024104;28;20049;-80
2022/05/29 04:22:53;;;;;;;12.18;3.35;;;10.50;99.90;;;;;;5018328;28;20053;-80
2022/05/29 04:25:20;;;;;;;14.00;2.80;;;10.60;99.90;;;;;;5035814;28;20080;-80
2022/05/29 04:27:47;;;;;;;9.65;2.67;;;10.50;99.90;;;;;;5028358;28;20092;-79
2022/05/29 04:30:14;;;;;;;10.23;2.92;;;10.50;99.90;;;;;;5030242;28;20421;-79
2022/05/29 04:35:25;;;;;;;8.38;2.85;;;10.50;99.90;;;;;;5018701;28;20046;-79
2022/05/29 04:37:53;;;;;;;10.55;3.58;;;10.50;99.90;;;;;;5017515;28;20075;-79
2022/05/29 04:40:20;;;;;;;6.55;2.78;;;10.50;99.90;;;;;;5016912;28;20520;-79
2022/05/29 04:42:47;;;;;;;10.35;2.75;;;10.50;99.90;;;;;;5017952;28;20049;-79
2022/05/29 04:45:14;;;;;;;11.38;2.85;;;10.50;99.90;;;;;;5035351;28;20045;-79
2022/05/29 04:47:41;;;;;;;11.10;3.55;;;10.50;99.90;;;;;;5017151;28;20057;-79
2022/05/29 04:50:08;;;;;;;9.85;3.10;;;10.50;99.90;;;;;;5017839;28;20449;-80
2022/05/29 04:52:35;;;;;;;10.05;3.13;;;10.50;99.90;;;;;;5035250;28;20057;-79
2022/05/29 04:55:04;;;;;;;13.75;2.90;;;10.50;99.90;;;;;;5016699;28;20049;-79
2022/05/29 04:57:32;;;;;;;10.07;2.83;;;10.50;99.90;;;;;;5035531;28;20057;-77
2022/05/29 04:59:58;;;;;;;12.38;2.97;;;10.60;99.90;;;;;;5016901;28;20041;-76
2022/05/29 05:02:26;;;;;;;13.10;3.28;;;10.70;99.90;;;;;;5016530;28;20061;-76
2022/05/29 05:04:53;;;;;;;11.45;3.28;;;10.80;99.90;;;;;;5016195;28;20087;-80
2022/05/29 05:07:20;;;;;;;17.80;2.83;;;10.80;99.90;;;;;;5035621;28;20045;-79
2022/05/29 05:09:48;;;;;;;9.07;2.63;;;10.80;99.90;;;;;;5016849;28;20405;-80
2022/05/29 05:12:16;;;;;;;11.55;4.35;;;10.90;99.90;;;;;;5035197;28;20045;-80
2022/05/29 05:14:43;;;;;;;10.07;2.55;;;11.10;99.90;;;;;;5024949;28;20057;-78
2022/05/29 05:17:10;;;;;;;13.90;3.58;;;11.00;99.90;;;;;;4999607;28;20057;-77
2022/05/29 05:19:37;;;;;;;9.70;2.38;;;11.00;99.90;;;;;;5024727;28;20041;-78
2022/05/29 05:22:05;;;;;;;8.48;2.17;;;11.10;99.90;;;;;;5007926;28;20361;-77
2022/05/29 05:24:34;;;;;;;11.55;2.85;;;11.10;99.90;;;;;;5024319;28;20462;-76
2022/05/29 05:27:00;;;;;;;14.35;2.95;;;11.10;99.90;;;;;;5004237;28;20093;-77
2022/05/29 05:29:28;;;;;;;12.82;3.28;;;11.10;99.90;;;;;;5013281;28;20080;-77
2022/05/29 05:31:55;;;;;;;13.98;3.13;;;11.00;99.90;;;;;;5008934;28;20081;-78
2022/05/29 05:34:22;;;;;;;13.00;3.60;;;11.00;99.90;;;;;;5012798;28;20052;-78
2022/05/29 05:36:49;;;;;;;10.30;2.72;;;10.90;99.90;;;;;;5026090;28;20053;-76
2022/05/29 05:39:16;;;;;;;14.35;3.55;;;10.80;99.90;;;;;;5008118;28;20458;-75
2022/05/29 05:41:43;;;;;;;12.57;3.38;;;10.80;99.90;;;;;;5009006;28;20085;-77
2022/05/29 05:44:10;;;;;;;15.35;2.88;;;10.80;99.90;;;;;;5013545;28;20084;-77
2022/05/29 05:46:43;;;;;;;19.17;3.10;;;10.80;99.90;;;;;;5009448;28;20057;-77
2022/05/29 05:49:10;;;;;;;11.68;3.17;;;10.90;99.90;;;;;;5008090;28;20485;-77
2022/05/29 05:51:37;;;;;;;5.45;2.30;;;11.00;99.90;;;;;;5006203;28;20088;-78
2022/05/29 05:54:04;;;;;;;15.55;3.10;;;11.10;99.90;;;;;;5007500;28;20054;-78
2022/05/29 05:56:31;;;;;;;10.23;2.58;;;11.10;99.90;;;;;;5023054;28;20042;-78
2022/05/29 05:58:58;;;;;;;17.00;3.50;;;11.20;99.90;;;;;;5010275;28;20049;-79
2022/05/29 06:01:24;;;;;;;14.18;3.58;;;11.20;99.90;;;;;;5026748;28;20460;-78
2022/05/29 06:03:53;;;;;;;13.73;3.97;;;11.30;99.90;;;;;;5013804;28;20089;-76
2022/05/29 06:06:19;;;;;;;14.25;3.10;;;11.40;99.90;;;;;;5012977;28;20103;-78
2022/05/29 06:08:46;;;;;;;11.70;3.38;;;11.40;99.90;;;;;;5007344;28;20551;-78
2022/05/29 06:11:13;;;;;;;10.13;2.35;;;11.40;99.90;;;;;;5008303;28;20073;-77
2022/05/29 06:13:40;;;;;;;16.40;4.00;;;11.50;99.90;;;;;;5029704;28;20053;-75
2022/05/29 06:16:08;;;;;;;14.88;3.30;;;11.50;99.90;;;;;;5026996;28;20084;-76
2022/05/29 06:18:36;;;;;;;11.75;3.03;;;11.60;99.90;;;;;;5024818;28;20061;-76
2022/05/29 06:21:05;;;;;;;9.70;2.85;;;11.60;99.90;;;;;;5009098;28;20046;-76
2022/05/29 06:23:33;;;;;;;18.35;3.10;;;11.70;99.90;;;;;;5009318;28;20099;-76
2022/05/29 06:26:02;;;;;;;8.85;2.80;;;11.70;99.90;;;;;;5025692;28;20532;-78
2022/05/29 06:28:29;;;;;;;12.85;3.50;;;11.70;99.90;;;;;;5009619;28;20408;-77
2022/05/29 06:30:56;;;;;;;9.50;2.25;;;11.70;99.90;;;;;;5008861;28;20441;-77
2022/05/29 06:33:23;;;;;;;10.15;3.58;;;11.70;99.90;;;;;;5009962;28;20489;-77
2022/05/29 06:35:51;;;;;;;11.43;2.38;;;11.70;99.90;;;;;;5026730;28;20493;-78
2022/05/29 06:38:19;;;;;;;7.25;2.00;;;11.70;99.90;;;;;;5007665;28;20140;-78
2022/05/29 06:40:49;;;;;;;7.97;1.85;;;11.80;99.90;;;;;;5023799;28;20478;-77
2022/05/29 06:43:16;;;;;;;5.38;1.70;;;11.90;99.90;;;;;;5028205;28;20049;-78
2022/05/29 06:45:43;;;;;;;8.60;2.33;;;11.80;99.90;;;;;;5009385;28;20100;-78
2022/05/29 06:48:09;;;;;;;9.48;2.30;;;11.80;99.90;;;;;;5024875;28;20520;-77
2022/05/29 06:50:36;;;;;;;7.40;3.10;;;11.80;99.90;;;;;;5006877;28;20054;-78
2022/05/29 06:53:03;;;;;;;7.57;2.60;;;11.80;99.90;;;;;;5006496;28;20123;-78
2022/05/29 06:55:31;;;;;;;11.13;1.90;;;11.90;99.90;;;;;;5021133;28;20413;-77
2022/05/29 06:57:58;;;;;;;11.00;3.08;;;12.00;99.90;;;;;;5026507;28;20045;-77
2022/05/29 07:08:44;;;;;;;8.20;2.63;;;12.10;99.90;;;;;;5005839;28;20054;-79
2022/05/29 07:11:16;;;;;;;10.98;2.72;;;12.20;99.90;;;;;;5004668;28;20056;-78
2022/05/29 07:13:44;;;;;;;9.18;2.30;;;12.10;99.90;;;;;;5012353;28;20099;-79
2022/05/29 07:16:10;;;;;;;9.48;2.35;;;12.10;99.90;;;;;;5024141;28;20080;-77
2022/05/29 07:18:37;;;;;;;10.82;2.63;;;12.00;99.90;;;;;;5007088;28;20053;-75
2022/05/29 07:21:05;;;;;;;8.85;2.53;;;12.10;99.90;;;;;;5008638;28;20057;-78
2022/05/29 07:23:33;;;;;;;9.75;1.60;;;12.10;99.90;;;;;;5024900;28;20049;-78
2022/05/29 07:26:00;;;;;;;9.90;2.10;;;12.10;99.90;;;;;;5025158;28;20514;-81
2022/05/29 07:28:28;;;;;;;6.97;2.30;;;12.20;99.90;;;;;;5029735;28;20057;-80
2022/05/29 07:30:55;;;;;;;7.65;1.70;;;12.20;99.90;;;;;;5015038;28;20095;-82
2022/05/29 07:33:22;;;;;;;4.47;1.55;;;12.20;99.90;;;;;;5013735;28;20057;-82
2022/05/29 07:35:50;;;;;;;6.65;1.70;;;12.20;99.90;;;;;;5032351;28;20053;-82
2022/05/29 07:38:17;;;;;;;5.60;1.58;;;12.30;99.90;;;;;;5010060;28;20049;-84
2022/05/29 07:40:43;;;;;;;8.63;2.13;;;12.40;99.90;;;;;;5009556;28;20046;-82
2022/05/29 07:43:22;;;;;;;8.95;1.90;;;12.50;99.90;;;;;;5027549;28;20092;-81
2022/05/29 07:45:53;;;;;;;9.02;1.50;;;12.50;99.90;;;;;;5029035;28;20026;-80
2022/05/29 07:48:23;;;;;;;6.70;2.45;;;12.70;99.90;;;;;;5014348;28;20056;-78
2022/05/29 07:50:50;;;;;;;9.52;2.50;;;12.80;99.90;;;;;;5027815;28;20560;-79
2022/05/29 07:53:17;;;;;;;7.53;1.48;;;12.80;99.90;;;;;;5010918;28;20116;-82
2022/05/29 07:55:44;;;;;;;4.30;1.38;;;12.90;99.90;;;;;;5029481;28;20096;-81
2022/05/29 07:58:12;;;;;;;5.63;1.42;;;13.00;99.90;;;;;;5030037;28;20132;-80
2022/05/29 08:00:40;;;;;;;6.93;1.20;;;12.90;99.90;;;;;;5029374;28;20124;-80
2022/05/29 08:03:08;;;;;;;5.47;2.03;;;12.90;99.90;;;;;;5013568;28;20103;-78
2022/05/29 08:05:37;;;;;;;4.68;1.48;;;12.80;99.90;;;;;;5028750;28;20049;-77
2022/05/29 08:08:08;;;;;;;4.95;1.65;;;12.90;99.90;;;;;;5007371;28;20138;-78
2022/05/29 08:10:36;;;;;;;6.65;1.67;;;12.70;99.90;;;;;;5024752;28;20129;-79
2022/05/29 08:13:04;;;;;;;4.38;1.35;;;12.90;99.90;;;;;;5012444;28;20045;-77
2022/05/29 08:15:31;;;;;;;4.88;1.50;;;13.10;99.90;;;;;;5009577;28;20093;-77
2022/05/29 08:17:58;;;;;;;9.35;1.70;;;13.20;99.90;;;;;;5012352;28;20535;-78
2022/05/29 08:20:27;;;;;;;12.52;1.52;;;13.30;99.90;;;;;;5010406;28;20042;-79
2022/05/29 08:22:54;;;;;;;6.95;1.65;;;13.20;99.90;;;;;;5013865;28;20092;-79
2022/05/29 08:31:02;;;;;;;7.07;1.75;;;13.20;99.90;;;;;;4943278;28;20117;-78
2022/05/29 08:33:32;;;;;;;15.13;3.03;;;13.10;99.90;;;;;;5000593;28;20183;-77
2022/05/29 08:36:01;;;;;;;7.53;1.80;;;13.00;99.90;;;;;;4997998;28;20468;-77
2022/05/29 08:38:30;;;;;;;7.40;2.00;;;13.00;99.90;;;;;;4998306;28;20089;-77
2022/05/29 08:40:59;;;;;;;8.35;1.80;;;12.90;99.90;;;;;;5012390;28;20078;-81
2022/05/29 08:43:29;;;;;;;5.78;1.75;;;12.90;99.90;;;;;;5007441;28;20057;-82
2022/05/29 08:45:57;;;;;;;7.35;1.67;;;13.10;99.90;;;;;;5008113;28;20053;-79
2022/05/29 08:48:27;;;;;;;8.57;1.83;;;12.90;99.90;;;;;;4996810;28;20120;-77
2022/05/29 08:51:05;;;;;;;5.88;1.40;;;12.80;99.90;;;;;;5014032;28;20095;-75
2022/05/29 08:53:37;;;;;;;7.53;1.75;;;12.90;99.90;;;;;;5009915;28;20406;-79
2022/05/29 08:56:21;;;;;;;7.85;1.55;;;12.90;99.90;;;;;;4995702;28;20058;-78
2022/05/29 08:59:04;;;;;;;4.50;1.20;;;12.90;99.90;;;;;;5015063;28;20064;-79
2022/05/29 09:01:43;;;;;;;6.60;1.83;;;12.90;99.90;;;;;;4998834;28;20110;-79
2022/05/29 09:04:15;;;;;;;6.88;1.48;;;12.90;99.90;;;;;;5014596;28;20089;-81
2022/05/29 09:06:48;;;;;;;4.10;1.85;;;12.90;99.90;;;;;;5002015;28;20057;-81
2022/05/29 09:09:24;;;;;;;4.28;1.38;;;13.00;99.90;;;;;;5015484;28;20078;-78
2022/05/29 09:11:52;;;;;;;6.22;1.30;;;13.10;99.90;;;;;;5013615;28;20455;-80
2022/05/29 09:14:24;;;;;;;3.97;1.70;;;13.20;99.90;;;;;;4995336;28;20053;-81
2022/05/29 09:16:57;;;;;;;5.05;1.50;;;13.30;99.90;;;;;;5014474;28;20104;-80
2022/05/29 09:19:33;;;;;;;8.40;2.28;;;13.40;99.90;;;;;;5013778;28;20050;-80
2022/05/29 09:22:06;;;;;;;13.52;1.88;;;13.50;99.90;;;;;;5006035;28;20046;-81
2022/05/29 09:24:47;;;;;;;10.23;1.92;;;13.70;99.90;;;;;;4998774;28;20105;-81
2022/05/29 09:27:16;;;;;;;10.90;2.95;;;13.70;99.90;;;;;;4998135;28;20085;-82
2022/05/29 09:29:43;;;;;;;9.98;2.45;;;13.70;99.90;;;;;;5000687;28;20640;-80
2022/05/29 09:32:15;;;;;;;9.85;2.28;;;13.60;99.90;;;;;;5008035;28;20104;-79
2022/05/29 09:34:43;;;;;;;7.90;2.03;;;13.60;99.90;;;;;;4990444;28;20417;-81
2022/05/29 09:37:23;;;;;;;7.47;2.30;;;13.50;99.90;;;;;;4987896;28;20112;-83
2022/05/29 09:39:57;;;;;;;6.73;1.57;;;13.50;99.90;;;;;;4988978;28;20128;-83
2022/05/29 09:42:30;;;;;;;7.70;1.88;;;13.50;99.90;;;;;;4987773;28;20046;-86
2022/05/29 09:45:11;;;;;;;8.00;2.17;;;13.80;99.90;;;;;;5009035;28;20096;-81
2022/05/29 09:50:45;;;;;;;7.40;2.42;;;13.70;99.90;;;;;;5006659;28;20042;-80
2022/05/29 09:53:17;;;;;;;7.07;1.73;;;13.90;99.90;;;;;;5009083;28;20409;-82
2022/05/29 09:55:54;;;;;;;7.30;1.50;;;13.90;99.90;;;;;;4989982;28;20054;-78
2022/05/29 09:58:26;;;;;;;8.50;1.60;;;14.20;99.90;;;;;;4989637;28;20563;-83
2022/05/29 10:00:56;;;;;;;3.40;1.30;;;14.60;99.90;;;;;;4994185;28;20430;-81
2022/05/29 10:03:39;;;;;;;6.00;1.73;;;14.20;99.90;;;;;;4988063;28;20104;-83
2022/05/29 10:06:16;;;;;;;7.78;1.60;;;14.30;99.90;;;;;;5009206;28;20042;-82
2022/05/29 10:08:45;;;;;;;7.72;2.47;;;14.30;99.90;;;;;;4994602;28;20073;-83
2022/05/29 10:11:31;;;;;;;7.55;1.95;;;14.30;99.90;;;;;;4994284;28;20054;-79
2022/05/29 10:14:00;;;;;;;8.27;1.98;;;14.30;99.90;;;;;;5002377;28;20141;-81
2022/05/29 10:16:33;;;;;;;7.53;1.85;;;14.30;99.90;;;;;;4996810;28;20177;-80
2022/05/29 10:19:00;;;;;;;6.75;1.33;;;14.30;99.90;;;;;;4974287;28;20116;-78
2022/05/29 10:21:29;;;;;;;4.25;1.75;;;14.40;99.90;;;;;;4989655;28;20038;-82
2022/05/29 10:24:19;;;;;;;7.50;1.60;;;14.20;99.90;;;;;;4979668;28;20096;-81
2022/05/29 10:26:49;;;;;;;5.32;1.63;;;14.20;99.90;;;;;;4987131;28;20593;-81
2022/05/29 10:29:21;;;;;;;5.30;1.33;;;14.20;99.90;;;;;;5000401;28;20128;-80
2022/05/29 10:31:51;;;;;;;6.55;1.38;;;14.20;99.90;;;;;;5001076;28;20559;-79
2022/05/29 10:34:25;;;;;;;7.72;1.30;;;14.30;99.90;;;;;;5013309;28;20107;-80
2022/05/29 10:36:52;;;;;;;4.63;1.27;;;14.50;99.90;;;;;;5012730;28;20054;-81
2022/05/29 10:39:24;;;;;;;7.78;2.28;;;14.60;99.90;;;;;;4995930;28;20077;-80
2022/05/29 10:41:52;;;;;;;5.95;1.38;;;14.90;99.90;;;;;;5023294;28;20141;-78
2022/05/29 10:44:41;;;;;;;6.53;1.77;;;15.20;99.90;;;;;;5010042;28;20057;-81
2022/05/29 10:47:14;;;;;;;5.63;1.52;;;15.40;99.90;;;;;;4994828;28;20060;-81
2022/05/29 10:49:50;;;;;;;5.63;1.65;;;15.30;99.90;;;;;;5013145;28;20163;-80
2022/05/29 10:52:41;;;;;;;5.15;1.40;;;14.90;99.90;;;;;;5011796;28;20111;-81
2022/05/29 10:55:28;;;;;;;7.43;1.85;;;14.70;99.90;;;;;;5007619;28;20057;-81
2022/05/29 10:58:09;;;;;;;6.47;1.23;;;14.40;99.90;;;;;;5014227;28;20140;-79
2022/05/29 11:00:45;;;;;;;5.07;1.40;;;14.30;99.90;;;;;;5014899;28;20080;-81
2022/05/29 11:03:44;;;;;;;7.78;2.05;;;14.00;99.90;;;;;;5034333;28;20056;-81
2022/05/29 11:06:35;;;;;;;5.93;1.98;;;13.80;99.90;;;;;;5017379;28;20045;-81
2022/05/29 11:09:31;;;;;;;11.73;2.15;;;13.70;99.90;;;;;;5017315;28;20140;-80
2022/05/29 11:12:09;;;;;;;8.30;1.98;;;13.60;99.90;;;;;;5008003;28;20078;-80
2022/05/29 11:14:58;;;;;;;6.40;1.88;;;13.60;99.90;;;;;;5000287;28;20149;-79
2022/05/29 11:17:39;;;;;;;5.65;1.98;;;13.80;99.90;;;;;;5003415;28;20116;-81
2022/05/29 11:20:49;;;;;;;5.32;1.83;;;13.90;99.90;;;;;;5016934;28;20124;-80
2022/05/29 11:23:33;;;;;;;10.18;1.75;;;14.10;99.90;;;;;;4988235;28;20081;-79
2022/05/29 11:26:08;;;;;;;8.23;1.67;;;14.40;99.90;;;;;;5017661;28;20054;-78
2022/05/29 11:28:52;;;;;;;9.18;2.15;;;14.70;99.90;;;;;;4997285;28;20062;-77
2022/05/29 11:31:40;;;;;;;8.23;2.00;;;14.90;99.90;;;;;;4998483;28;20054;-80
2022/05/29 11:34:21;;;;;;;6.75;1.60;;;15.00;99.90;;;;;;4999973;28;20066;-80
2022/05/29 11:37:03;;;;;;;6.60;2.13;;;15.10;99.90;;;;;;5002912;28;20249;-79
2022/05/29 11:39:39;;;;;;;7.88;2.28;;;15.30;99.90;;;;;;4996790;28;20094;-79
2022/05/29 11:42:14;;;;;;;5.85;1.95;;;15.20;99.90;;;;;;4995213;28;20056;-79
2022/05/29 11:44:51;;;;;;;10.95;3.28;;;15.20;99.90;;;;;;4995458;28;20054;-79
2022/05/29 11:53:22;;;;;;;8.80;1.95;;;15.40;99.90;;;;;;4970858;28;20046;-81
2022/05/29 11:55:50;;;;;;;6.43;1.75;;;15.50;99.90;;;;;;5008639;28;20096;-80
2022/05/29 11:58:21;;;;;;;6.80;2.05;;;15.50;99.90;;;;;;5003804;28;20057;-81
2022/05/29 12:00:55;;;;;;;7.03;2.13;;;15.50;99.90;;;;;;4997479;28;20073;-82
2022/05/29 12:03:36;;;;;;;7.10;1.80;;;15.40;99.90;;;;;;4999680;28;20141;-82
2022/05/29 12:06:10;;;;;;;7.47;2.35;;;15.40;99.90;;;;;;4998997;28;20049;-81
2022/05/29 12:08:48;;;;;;;8.48;2.90;;;15.10;99.90;;;;;;5006807;28;20109;-81
2022/05/29 12:11:33;;;;;;;6.68;1.88;;;14.80;99.90;;;;;;4998457;28;20438;-81
2022/05/29 12:14:05;;;;;;;5.38;1.48;;;14.50;99.90;;;;;;5007064;28;20529;-81
2022/05/29 12:16:36;;;;;;;11.70;2.35;;;14.20;99.90;;;;;;5011815;28;20047;-79
2022/05/29 12:19:11;;;;;;;7.45;1.75;;;14.10;99.90;;;;;;4993668;28;20474;-79
2022/05/29 12:21:43;;;;;;;5.47;2.03;;;14.00;99.90;;;;;;5003029;28;20074;-80
2022/05/29 12:24:15;;;;;;;6.75;1.95;;;13.90;99.90;;;;;;4992984;28;20105;-79
2022/05/29 12:26:46;;;;;;;5.93;1.73;;;14.00;99.90;;;;;;5006379;28;20465;-79
2022/05/29 12:29:19;;;;;;;6.20;1.60;;;14.10;99.90;;;;;;5014194;28;20104;-80
2022/05/29 12:31:50;;;;;;;5.97;2.00;;;14.20;99.90;;;;;;5013940;28;20057;-80
2022/05/29 12:34:22;;;;;;;6.85;1.58;;;14.40;99.90;;;;;;5017236;28;20053;-79
2022/05/29 12:37:17;;;;;;;10.15;2.28;;;14.50;99.90;;;;;;4999448;28;20054;-81
2022/05/29 12:40:25;;;;;;;8.95;2.00;;;14.90;99.90;;;;;;4996658;28;20108;-81
2022/05/29 12:43:21;;;;;;;9.25;2.22;;;15.40;99.90;;;;;;4988349;28;20049;-76
2022/05/29 12:45:57;;;;;;;8.85;2.35;;;15.90;99.90;;;;;;4970333;28;20469;-83
2022/05/29 12:48:53;;;;;;;8.55;2.15;;;16.30;99.90;;;;;;5004810;28;20116;-83
2022/05/29 12:51:36;;;;;;;9.38;1.77;;;16.90;99.90;;;;;;5001955;28;20068;-79
2022/05/29 12:54:39;;;;;;;7.13;1.92;;;16.60;99.90;;;;;;5013314;28;20103;-77
2022/05/29 12:57:39;;;;;;;6.30;1.75;;;16.60;99.90;;;;;;5005171;28;20041;-77
2022/05/29 13:00:27;;;;;;;7.40;2.15;;;16.40;99.90;;;;;;5013162;28;20416;-77
2022/05/29 13:03:23;;;;;;;10.82;2.20;;;16.30;99.90;;;;;;4996592;28;20133;-78
2022/05/29 13:06:10;;;;;;;7.88;2.22;;;16.30;99.90;;;;;;4996096;28;20053;-81
2022/05/29 13:09:19;;;;;;;5.53;1.45;;;16.40;99.90;;;;;;5008709;28;20076;-83
2022/05/29 13:11:51;;;;;;;3.78;1.30;;;16.40;99.90;;;;;;5003424;28;20049;-78
2022/05/29 13:14:20;;;;;;;7.70;1.70;;;16.40;99.90;;;;;;4998831;28;20555;-78
2022/05/29 13:17:00;;;;;;;8.38;1.80;;;16.40;99.90;;;;;;4999272;28;20042;-79
2022/05/29 13:19:59;;;;;;;8.00;2.20;;;16.50;99.90;;;;;;5009479;28;20054;-80
2022/05/29 13:22:53;;;;;;;7.50;1.85;;;16.40;99.90;;;;;;5015667;28;20493;-80
2022/05/29 13:25:22;;;;;;;8.60;1.73;;;16.40;99.90;;;;;;5032672;28;20386;-81
2022/05/29 13:27:49;;;;;;;8.88;2.15;;;16.30;99.90;;;;;;5008100;28;20608;-81
2022/05/29 13:30:52;;;;;;;7.25;2.08;;;16.20;99.90;;;;;;5002372;28;20131;-78
2022/05/29 13:33:38;;;;;;;6.05;2.10;;;16.10;99.90;;;;;;5008801;28;20417;-82
2022/05/29 13:36:05;;;;;;;7.65;1.90;;;15.80;99.90;;;;;;5014023;28;20526;-80
2022/05/29 13:38:55;;;;;;;12.95;1.80;;;15.50;99.90;;;;;;5000865;28;20073;-78
2022/05/29 13:41:27;;;;;;;9.32;1.73;;;15.30;99.90;;;;;;5003990;28;20418;-79
2022/05/29 13:43:55;;;;;;;7.25;2.22;;;15.10;99.90;;;;;;5012249;28;20100;-79